Time;durP1;ratioP1;P1;durP2;ratioP2;P2;SDS_P1;SDS_P2;PMS_P1;PMS_P2;Temp;Humidity;BMP_temperature;BMP_pressure;BME280_temperature;BME280_humidity;BME280_pressure;Samples;Min_cycle;Max_cycle;Signal;HPM_P1;HPM_P2
2024/01/08 00:00:05;;;;;;;5.88;5.28;;;;;;;-2.49;84.98;102975.19;5024829;28;20025;-62
2024/01/08 00:02:31;;;;;;;7.03;5.07;;;;;;;-2.53;85.26;102976.00;5019047;28;20022;-62
2024/01/08 00:04:57;;;;;;;6.38;5.35;;;;;;;-2.53;85.96;102973.41;5022590;28;20086;-61
2024/01/08 00:07:22;;;;;;;5.70;5.20;;;;;;;-2.52;85.69;102970.81;5020083;28;20116;-62
2024/01/08 00:09:47;;;;;;;7.53;4.93;;;;;;;-2.53;86.59;102970.81;5022736;28;20036;-62
2024/01/08 00:12:13;;;;;;;6.10;5.22;;;;;;;-2.53;86.02;102976.91;5018128;28;20022;-62
2024/01/08 00:14:39;;;;;;;5.82;4.93;;;;;;;-2.53;84.62;102974.31;5023257;28;20471;-62
2024/01/08 00:17:05;;;;;;;5.65;4.97;;;;;;;-2.56;85.06;102976.84;5017440;28;20029;-62
2024/01/08 00:19:30;;;;;;;5.32;4.82;;;;;;;-2.53;85.00;102976.00;5015570;28;20559;-61
2024/01/08 00:21:56;;;;;;;5.68;5.00;;;;;;;-2.55;85.59;102973.38;5025213;28;20033;-62
2024/01/08 00:24:21;;;;;;;6.13;5.53;;;;;;;-2.56;85.73;102989.88;5022641;28;20029;-62
2024/01/08 00:26:46;;;;;;;6.03;5.32;;;;;;;-2.57;85.41;102987.25;5019584;28;20061;-62
2024/01/08 00:29:11;;;;;;;7.63;5.90;;;;;;;-2.57;85.97;102982.91;5027732;28;20137;-62
2024/01/08 00:31:37;;;;;;;6.15;5.50;;;;;;;-2.55;86.23;102983.78;5018403;28;20475;-62
2024/01/08 00:34:02;;;;;;;5.75;5.00;;;;;;;-2.53;85.93;102976.91;5024933;28;20026;-62
2024/01/08 00:36:27;;;;;;;6.68;5.45;;;;;;;-2.51;85.97;102974.31;5019958;28;20026;-61
2024/01/08 00:38:53;;;;;;;7.10;5.70;;;;;;;-2.51;86.33;102983.00;5022777;28;20037;-62
2024/01/08 00:41:19;;;;;;;6.70;5.72;;;;;;;-2.49;85.97;102978.66;5018987;28;20078;-62
2024/01/08 00:43:44;;;;;;;6.18;5.57;;;;;;;-2.48;86.11;102984.75;5020269;28;20026;-62
2024/01/08 00:46:09;;;;;;;6.63;5.90;;;;;;;-2.47;85.61;102986.50;5023635;28;20048;-62
2024/01/08 00:48:35;;;;;;;7.22;5.78;;;;;;;-2.46;85.93;102983.06;5021336;28;20029;-62
2024/01/08 00:51:00;;;;;;;9.65;7.53;;;;;;;-2.48;85.85;102983.03;5018809;28;20061;-62
2024/01/08 00:53:25;;;;;;;11.85;8.23;;;;;;;-2.47;85.96;102979.56;5025685;28;20112;-61
2024/01/08 00:55:50;;;;;;;10.35;7.80;;;;;;;-2.47;85.60;102984.75;5015479;28;20294;-62
2024/01/08 00:58:16;;;;;;;11.10;8.27;;;;;;;-2.43;85.51;102985.69;5023142;28;20064;-62
2024/01/08 01:00:41;;;;;;;12.73;9.43;;;;;;;-2.41;84.57;102983.97;5021870;28;20477;-62
2024/01/08 01:03:06;;;;;;;16.95;10.68;;;;;;;-2.46;84.48;102985.66;5022390;28;20030;-62
2024/01/08 01:05:32;;;;;;;15.35;11.07;;;;;;;-2.47;84.87;102984.75;5023976;28;20108;-62
2024/01/08 01:07:57;;;;;;;16.63;11.02;;;;;;;-2.48;84.51;102982.13;5022051;28;20034;-61
2024/01/08 01:10:22;;;;;;;16.55;11.50;;;;;;;-2.48;85.33;102983.03;5021607;28;20064;-61
2024/01/08 01:12:48;;;;;;;21.67;12.63;;;;;;;-2.45;84.97;102984.78;5020511;28;20041;-62
2024/01/08 01:15:13;;;;;;;19.55;13.13;;;;;;;-2.45;85.45;102990.88;5014308;28;20080;-62
2024/01/08 01:17:38;;;;;;;18.05;11.95;;;;;;;-2.43;85.49;102988.28;5025903;28;20022;-62
2024/01/08 01:20:04;;;;;;;20.70;13.77;;;;;;;-2.40;86.02;102992.66;5020681;28;20079;-62
2024/01/08 01:22:30;;;;;;;20.08;12.23;;;;;;;-2.40;86.06;102979.63;5021983;28;20037;-62
2024/01/08 01:24:55;;;;;;;23.38;12.50;;;;;;;-2.38;86.25;102985.72;5023604;28;20542;-62
2024/01/08 01:27:20;;;;;;;22.42;13.30;;;;;;;-2.37;86.12;102990.09;5019460;28;20113;-62
2024/01/08 01:29:45;;;;;;;23.35;14.68;;;;;;;-2.39;85.05;102990.06;5023539;28;20093;-62
2024/01/08 01:32:11;;;;;;;17.70;12.23;;;;;;;-2.40;84.76;102982.25;5028424;28;20076;-62
2024/01/08 01:34:37;;;;;;;16.80;11.45;;;;;;;-2.38;84.64;102986.63;5024083;28;20532;-62
2024/01/08 01:37:05;;;;;;;16.15;11.98;;;;;;;-2.36;85.54;102986.66;5018538;28;20025;-62
2024/01/08 01:39:32;;;;;;;14.45;10.57;;;;;;;-2.36;85.15;102986.66;5024139;28;20471;-62
2024/01/08 01:41:57;;;;;;;11.73;8.93;;;;;;;-2.36;82.74;102989.25;5021552;28;20360;-62
2024/01/08 01:44:23;;;;;;;12.70;8.75;;;;;;;-2.37;81.63;102984.88;5024656;28;20037;-62
2024/01/08 01:46:49;;;;;;;12.50;8.65;;;;;;;-2.39;82.07;102989.19;5023779;28;20033;-62
2024/01/08 01:49:19;;;;;;;12.43;8.20;;;;;;;-2.37;82.29;102990.09;5027620;28;20021;-62
2024/01/08 01:51:46;;;;;;;13.45;8.10;;;;;;;-2.43;81.77;102983.97;5020173;28;20036;-62
2024/01/08 01:54:13;;;;;;;13.07;8.75;;;;;;;-2.38;81.91;102988.31;5022786;28;20025;-62
2024/01/08 01:56:41;;;;;;;9.90;8.10;;;;;;;-2.39;82.22;102982.25;5025487;28;20083;-62
2024/01/08 01:59:07;;;;;;;9.93;7.60;;;;;;;-2.40;80.71;102987.44;5023844;28;20033;-62
2024/01/08 02:01:35;;;;;;;9.00;7.35;;;;;;;-2.37;80.00;102990.09;5024843;28;20392;-62
2024/01/08 02:04:01;;;;;;;10.20;7.78;;;;;;;-2.42;80.74;102993.50;5023365;28;20022;-62
2024/01/08 02:06:28;;;;;;;9.38;7.80;;;;;;;-2.44;80.86;102990.00;5023938;28;20481;-62
2024/01/08 02:08:54;;;;;;;9.60;7.60;;;;;;;-2.44;81.09;102992.59;5026488;28;20479;-62
2024/01/08 02:11:20;;;;;;;11.55;7.57;;;;;;;-2.44;80.46;102992.59;5023128;28;20044;-62
2024/01/08 02:13:45;;;;;;;8.63;7.38;;;;;;;-2.43;80.90;102998.72;5016908;28;20048;-62
2024/01/08 02:16:10;;;;;;;11.25;7.80;;;;;;;-2.42;81.69;103006.50;5020444;28;20022;-62
2024/01/08 02:18:36;;;;;;;9.05;6.97;;;;;;;-2.39;81.61;102992.66;5027832;28;20029;-62
2024/01/08 02:21:01;;;;;;;9.02;7.10;;;;;;;-2.39;82.35;102995.28;5022078;28;20509;-62
2024/01/08 02:23:26;;;;;;;8.00;6.68;;;;;;;-2.36;82.61;103000.53;5024494;28;20071;-63
2024/01/08 02:25:52;;;;;;;7.70;6.47;;;;;;;-2.37;83.11;102996.16;5023367;28;20471;-62
2024/01/08 02:28:17;;;;;;;7.32;6.63;;;;;;;-2.39;83.18;102997.00;5020542;28;20022;-62
2024/01/08 02:30:43;;;;;;;9.13;6.20;;;;;;;-2.40;83.86;103001.31;5025636;28;20026;-62
2024/01/08 02:33:08;;;;;;;7.32;6.20;;;;;;;-2.41;83.69;102999.59;5025141;28;20037;-62
2024/01/08 02:35:33;;;;;;;7.00;5.47;;;;;;;-2.43;82.21;103004.78;5022860;28;20033;-62
2024/01/08 02:37:59;;;;;;;5.85;5.30;;;;;;;-2.47;82.59;103013.38;5022446;28;20053;-63
2024/01/08 02:40:25;;;;;;;5.90;5.25;;;;;;;-2.53;82.01;103010.72;5025132;28;20100;-62
2024/01/08 02:42:50;;;;;;;5.93;5.25;;;;;;;-2.58;81.88;103008.91;5023839;28;20262;-62
2024/01/08 02:45:16;;;;;;;7.03;5.53;;;;;;;-2.61;81.88;103009.75;5020165;28;20029;-62
2024/01/08 02:47:41;;;;;;;7.68;5.68;;;;;;;-2.67;81.55;103010.53;5018943;28;20095;-62
2024/01/08 02:50:07;;;;;;;5.55;5.05;;;;;;;-2.71;82.00;103018.28;5027294;28;20037;-62
2024/01/08 02:52:33;;;;;;;5.72;5.13;;;;;;;-2.74;82.22;103019.09;5019915;28;20104;-62
2024/01/08 02:54:59;;;;;;;8.77;5.70;;;;;;;-2.76;82.40;103025.13;5021540;28;20027;-62
2024/01/08 02:57:27;;;;;;;5.78;5.28;;;;;;;-2.80;82.86;103026.81;5023980;28;20057;-62
2024/01/08 02:59:52;;;;;;;5.95;5.30;;;;;;;-2.83;82.72;103024.16;5022067;28;20101;-62
2024/01/08 03:02:17;;;;;;;5.78;5.28;;;;;;;-2.85;82.88;103031.97;5021941;28;20100;-62
2024/01/08 03:04:43;;;;;;;6.00;5.40;;;;;;;-2.88;82.84;103037.13;5017669;28;20026;-62
2024/01/08 03:07:09;;;;;;;5.95;5.35;;;;;;;-2.92;83.37;103027.50;5026747;28;20092;-62
2024/01/08 03:09:34;;;;;;;6.35;5.35;;;;;;;-2.94;83.32;103030.97;5027685;28;20018;-62
2024/01/08 03:11:59;;;;;;;6.05;5.00;;;;;;;-2.97;83.05;103024.84;5013067;28;20034;-62
2024/01/08 03:14:24;;;;;;;8.35;5.30;;;;;;;-2.99;83.37;103033.47;5021137;28;20050;-62
2024/01/08 03:16:50;;;;;;;7.60;5.30;;;;;;;-3.01;83.46;103030.00;5022547;28;20032;-62
2024/01/08 03:19:15;;;;;;;8.60;5.90;;;;;;;-3.02;84.18;103023.91;5026423;28;20117;-62
2024/01/08 03:21:40;;;;;;;7.18;5.68;;;;;;;-3.03;84.27;103023.88;5015702;28;20379;-62
2024/01/08 03:24:06;;;;;;;7.05;5.53;;;;;;;-3.06;84.52;103034.25;5025379;28;20037;-62
2024/01/08 03:26:31;;;;;;;8.30;5.80;;;;;;;-3.08;84.46;103023.81;5023931;28;20026;-61
2024/01/08 03:28:58;;;;;;;8.45;5.60;;;;;;;-3.10;85.17;103027.22;5021095;28;20014;-62
2024/01/08 03:31:23;;;;;;;9.38;5.97;;;;;;;-3.09;84.76;103019.47;5022710;28;20033;-62
2024/01/08 03:33:48;;;;;;;6.78;5.70;;;;;;;-3.10;85.03;103027.22;5021091;28;20025;-62
2024/01/08 03:36:13;;;;;;;8.10;6.30;;;;;;;-3.08;85.46;103025.53;5021557;28;20451;-62
2024/01/08 03:38:40;;;;;;;10.75;8.38;;;;;;;-3.07;85.80;103035.09;5023861;28;20025;-62
2024/01/08 03:41:06;;;;;;;7.00;5.93;;;;;;;-3.06;86.10;103027.31;5020740;28;20044;-62
2024/01/08 03:43:31;;;;;;;7.40;5.95;;;;;;;-3.02;86.78;103031.69;5016608;28;20022;-62
2024/01/08 03:45:56;;;;;;;7.53;5.75;;;;;;;-2.99;86.83;103030.88;5017403;28;20092;-62
2024/01/08 03:48:22;;;;;;;8.55;6.60;;;;;;;-2.99;86.75;103036.09;5018372;28;20527;-62
2024/01/08 03:50:47;;;;;;;7.07;6.10;;;;;;;-2.98;87.42;103037.84;5021486;28;20064;-62
2024/01/08 03:53:12;;;;;;;6.85;5.82;;;;;;;-2.98;87.80;103036.09;5019356;28;20041;-62
2024/01/08 03:55:38;;;;;;;6.28;5.68;;;;;;;-2.98;87.20;103037.84;5019672;28;20052;-62
2024/01/08 03:58:03;;;;;;;7.03;6.32;;;;;;;-2.98;87.74;103033.50;5021002;28;20025;-62
2024/01/08 04:00:29;;;;;;;9.02;6.28;;;;;;;-2.98;87.51;103033.50;5014567;28;20018;-62
2024/01/08 04:02:55;;;;;;;9.43;6.18;;;;;;;-2.99;87.87;103036.09;5015704;28;20022;-62
2024/01/08 04:05:20;;;;;;;6.90;6.13;;;;;;;-2.97;87.80;103034.38;5020981;28;20120;-62
2024/01/08 04:07:45;;;;;;;8.70;6.70;;;;;;;-2.95;87.97;103042.19;5024339;28;20087;-63
2024/01/08 04:10:11;;;;;;;7.57;6.03;;;;;;;-2.91;88.11;103042.28;5019535;28;20044;-63
2024/01/08 04:12:36;;;;;;;8.90;6.45;;;;;;;-2.88;87.30;103037.13;5026462;28;20028;-63
2024/01/08 04:15:01;;;;;;;6.80;6.07;;;;;;;-2.84;87.00;103038.91;5023853;28;20076;-62
2024/01/08 04:17:27;;;;;;;6.90;6.07;;;;;;;-2.82;86.80;103033.72;5026413;28;20052;-62
2024/01/08 04:19:53;;;;;;;7.07;5.88;;;;;;;-2.79;87.33;103038.97;5028057;28;20051;-62
2024/01/08 04:22:19;;;;;;;7.00;6.30;;;;;;;-2.74;87.02;103036.44;5023006;28;20034;-63
2024/01/08 04:24:44;;;;;;;9.77;6.05;;;;;;;-2.69;86.89;103035.66;5026188;28;20022;-63
2024/01/08 04:27:09;;;;;;;6.82;6.00;;;;;;;-2.66;86.80;103033.09;5023215;28;20070;-63
2024/01/08 04:29:34;;;;;;;7.80;5.70;;;;;;;-2.61;86.35;103035.75;5021495;28;20022;-63
2024/01/08 04:32:01;;;;;;;6.78;5.50;;;;;;;-2.58;86.15;103035.81;5021301;28;20057;-63
2024/01/08 04:34:26;;;;;;;7.18;5.78;;;;;;;-2.54;85.85;103037.59;5019474;28;20026;-62
2024/01/08 04:36:51;;;;;;;6.28;5.68;;;;;;;-2.51;86.04;103037.63;5014434;28;20053;-62
2024/01/08 04:39:17;;;;;;;6.93;5.75;;;;;;;-2.53;86.16;103034.13;5018159;28;20022;-62
2024/01/08 04:41:42;;;;;;;6.88;5.53;;;;;;;-2.51;86.46;103034.16;5017683;28;20398;-62
2024/01/08 04:44:09;;;;;;;7.90;5.47;;;;;;;-2.53;85.60;103030.66;5022824;28;20051;-62
2024/01/08 04:46:34;;;;;;;6.55;5.72;;;;;;;-2.52;86.28;103030.66;5016309;28;20453;-62
2024/01/08 04:48:59;;;;;;;6.88;5.68;;;;;;;-2.51;85.92;103028.97;5017907;28;20033;-62
2024/01/08 04:51:25;;;;;;;5.80;5.20;;;;;;;-2.54;86.24;103029.78;5020621;28;20095;-63
2024/01/08 04:53:52;;;;;;;7.35;5.50;;;;;;;-2.54;86.50;103027.19;5018313;28;20034;-63
2024/01/08 04:56:24;;;;;;;6.70;5.50;;;;;;;-2.52;85.36;103028.06;5016749;28;20061;-62
2024/01/08 04:58:53;;;;;;;6.43;5.35;;;;;;;-2.55;85.90;103030.63;5016884;28;20111;-62
2024/01/08 05:01:18;;;;;;;7.93;5.88;;;;;;;-2.54;86.76;103029.78;5018391;28;20112;-62
2024/01/08 05:03:44;;;;;;;9.38;5.60;;;;;;;-2.52;86.61;103035.00;5022436;28;20165;-62
2024/01/08 05:06:11;;;;;;;7.45;5.60;;;;;;;-2.53;86.21;103035.84;5020008;28;20375;-62
2024/01/08 05:08:38;;;;;;;7.45;5.68;;;;;;;-2.55;86.11;103034.97;5022060;28;20071;-62
2024/01/08 05:11:04;;;;;;;7.30;5.95;;;;;;;-2.58;85.89;103030.59;5020562;28;20025;-62
2024/01/08 05:13:30;;;;;;;8.05;5.75;;;;;;;-2.60;86.04;103032.28;5025339;28;20029;-61
2024/01/08 05:15:55;;;;;;;9.52;6.20;;;;;;;-2.62;86.93;103027.06;5018846;28;20030;-62
2024/01/08 05:18:20;;;;;;;8.10;5.65;;;;;;;-2.61;87.25;103031.44;5023067;28;20038;-61
2024/01/08 05:20:45;;;;;;;7.88;5.63;;;;;;;-2.59;87.23;103028.84;5019773;28;20061;-63
2024/01/08 05:23:11;;;;;;;8.07;5.82;;;;;;;-2.59;87.27;103022.78;5020040;28;20029;-62
2024/01/08 05:25:36;;;;;;;6.55;5.75;;;;;;;-2.57;87.68;103026.28;5023398;28;20025;-62
2024/01/08 05:28:02;;;;;;;6.75;5.78;;;;;;;-2.55;87.92;103027.16;5025902;28;20489;-62
2024/01/08 05:30:27;;;;;;;8.05;6.15;;;;;;;-2.58;88.06;103025.41;5020150;28;20026;-63
2024/01/08 05:32:53;;;;;;;8.05;6.30;;;;;;;-2.61;88.30;103028.81;5021196;28;20390;-62
2024/01/08 05:35:19;;;;;;;8.50;6.10;;;;;;;-2.61;88.46;103026.22;5022896;28;20506;-63
2024/01/08 05:37:44;;;;;;;8.50;5.93;;;;;;;-2.61;88.65;103027.97;5021579;28;20108;-63
2024/01/08 05:40:10;;;;;;;9.93;5.47;;;;;;;-2.61;88.55;103026.22;5020799;28;20034;-62
2024/01/08 05:42:36;;;;;;;11.23;6.05;;;;;;;-2.61;89.49;103026.22;5024729;28;20022;-63
2024/01/08 05:45:01;;;;;;;8.23;6.80;;;;;;;-2.61;89.42;103028.81;5018302;28;20096;-63
2024/01/08 05:47:26;;;;;;;7.80;6.05;;;;;;;-2.60;89.14;103024.47;5021411;28;20037;-63
2024/01/08 05:49:51;;;;;;;9.18;5.78;;;;;;;-2.58;89.74;103024.50;5020524;28;20099;-63
2024/01/08 05:52:17;;;;;;;8.07;5.90;;;;;;;-2.58;90.23;103028.00;5020529;28;20030;-63
2024/01/08 05:54:42;;;;;;;11.35;6.57;;;;;;;-2.57;90.18;103021.06;5021154;28;20124;-62
2024/01/08 05:57:07;;;;;;;7.97;6.40;;;;;;;-2.60;90.50;103021.88;5024173;28;20149;-62
2024/01/08 05:59:33;;;;;;;7.65;6.22;;;;;;;-2.58;90.82;103024.50;5019582;28;20032;-62
2024/01/08 06:01:59;;;;;;;7.38;6.00;;;;;;;-2.57;91.19;103027.13;5032670;28;20041;-63
2024/01/08 06:04:24;;;;;;;8.27;5.95;;;;;;;-2.54;91.08;103027.19;5018853;28;20022;-63
2024/01/08 06:06:51;;;;;;;8.10;5.97;;;;;;;-2.54;91.35;103019.38;5025564;28;20033;-63
2024/01/08 06:09:16;;;;;;;8.57;6.93;;;;;;;-2.51;91.57;103028.97;5021819;28;20099;-63
2024/01/08 06:11:42;;;;;;;11.63;7.43;;;;;;;-2.50;91.77;103025.47;5023361;28;20479;-63
2024/01/08 06:14:07;;;;;;;8.25;6.13;;;;;;;-2.50;91.69;103026.38;5023270;28;20059;-63
2024/01/08 06:16:35;;;;;;;9.55;6.60;;;;;;;-2.49;91.86;103028.09;5019110;28;20025;-63
2024/01/08 06:19:03;;;;;;;10.00;6.97;;;;;;;-2.47;92.08;103021.19;5021128;28;20037;-63
2024/01/08 06:21:28;;;;;;;9.57;7.00;;;;;;;-2.45;92.12;103022.09;5025188;28;20036;-63
2024/01/08 06:23:53;;;;;;;7.97;6.40;;;;;;;-2.45;91.90;103019.50;5022373;28;20092;-63
2024/01/08 06:26:19;;;;;;;9.85;7.15;;;;;;;-2.45;92.31;103016.91;5022396;28;20030;-63
2024/01/08 06:28:45;;;;;;;10.52;7.55;;;;;;;-2.43;92.26;103022.13;5020010;28;20025;-63
2024/01/08 06:31:10;;;;;;;9.05;6.70;;;;;;;-2.43;92.55;103017.78;5019469;28;20116;-62
2024/01/08 06:33:35;;;;;;;8.73;7.38;;;;;;;-2.40;92.83;103011.72;5021736;28;20033;-63
2024/01/08 06:36:00;;;;;;;9.57;7.32;;;;;;;-2.37;92.87;103018.72;5025383;28;20112;-63
2024/01/08 06:38:26;;;;;;;8.82;7.05;;;;;;;-2.36;92.83;103020.47;5015608;28;20026;-63
2024/01/08 06:40:51;;;;;;;11.98;8.55;;;;;;;-2.35;92.88;103017.00;5023715;28;20029;-63
2024/01/08 06:43:16;;;;;;;11.68;7.55;;;;;;;-2.35;93.17;103017.88;5020700;28;20081;-63
2024/01/08 06:45:42;;;;;;;10.25;7.53;;;;;;;-2.31;93.20;103016.19;5022704;28;20029;-63
2024/01/08 06:48:07;;;;;;;10.05;7.35;;;;;;;-2.31;93.52;103013.59;5020067;28;20109;-63
2024/01/08 06:50:32;;;;;;;10.00;7.07;;;;;;;-2.30;93.23;103010.13;5021433;28;20074;-62
2024/01/08 06:52:57;;;;;;;10.35;7.30;;;;;;;-2.28;93.54;103011.00;5021527;28;20541;-63
2024/01/08 06:55:23;;;;;;;11.40;7.88;;;;;;;-2.27;93.45;103012.75;5022880;28;20025;-63
2024/01/08 06:57:50;;;;;;;9.55;7.70;;;;;;;-2.28;93.45;103008.41;5024054;28;20026;-63
2024/01/08 07:00:15;;;;;;;13.52;7.30;;;;;;;-2.28;93.37;103011.00;5019505;28;20037;-63
2024/01/08 07:02:41;;;;;;;10.82;7.82;;;;;;;-2.27;93.52;103005.81;5026438;28;20371;-63
2024/01/08 07:05:06;;;;;;;10.40;7.88;;;;;;;-2.27;93.27;103017.97;5022655;28;20026;-63
2024/01/08 07:07:32;;;;;;;11.05;8.07;;;;;;;-2.28;93.66;103011.00;5014908;28;20651;-63
2024/01/08 07:09:57;;;;;;;10.40;7.43;;;;;;;-2.27;93.84;103016.22;5018856;28;20051;-63
2024/01/08 07:12:22;;;;;;;10.23;7.60;;;;;;;-2.25;93.92;103016.25;5017859;28;20113;-63
2024/01/08 07:14:48;;;;;;;12.45;8.15;;;;;;;-2.23;93.79;103019.75;5021048;28;20075;-62
2024/01/08 07:17:13;;;;;;;9.90;7.47;;;;;;;-2.24;93.77;103025.81;5018268;28;20375;-63
2024/01/08 07:19:38;;;;;;;10.63;8.38;;;;;;;-2.23;93.57;103030.19;5019161;28;20021;-63
2024/01/08 07:22:04;;;;;;;9.75;7.90;;;;;;;-2.22;94.16;103031.03;5017387;28;20116;-63
2024/01/08 07:24:29;;;;;;;10.15;7.68;;;;;;;-2.21;94.19;103028.47;5025385;28;20364;-63
2024/01/08 07:26:56;;;;;;;11.82;8.43;;;;;;;-2.21;93.91;103033.66;5019378;28;20056;-63
2024/01/08 07:29:21;;;;;;;10.77;7.97;;;;;;;-2.20;94.09;103026.72;5013895;28;20057;-63
2024/01/08 07:31:46;;;;;;;11.27;7.97;;;;;;;-2.18;93.86;103027.59;5020008;28;20521;-62
2024/01/08 07:34:13;;;;;;;10.52;8.35;;;;;;;-2.15;94.34;103035.47;5017492;28;20025;-63
2024/01/08 07:36:38;;;;;;;9.93;8.02;;;;;;;-2.11;94.45;103035.50;5015055;28;20140;-64
2024/01/08 07:39:03;;;;;;;11.15;7.72;;;;;;;-2.05;93.95;103039.91;5016988;28;20026;-64
2024/01/08 07:41:29;;;;;;;12.32;8.15;;;;;;;-2.03;93.83;103045.13;5018306;28;20022;-63
2024/01/08 07:43:54;;;;;;;12.68;7.60;;;;;;;-2.00;94.30;103040.84;5017210;28;20040;-63
2024/01/08 07:46:19;;;;;;;10.05;8.13;;;;;;;-1.96;94.24;103054.78;5021953;28;20099;-63
2024/01/08 07:48:44;;;;;;;9.82;7.78;;;;;;;-1.94;94.34;103058.28;5019863;28;20017;-63
2024/01/08 07:51:10;;;;;;;11.05;8.18;;;;;;;-1.93;93.84;103066.09;5014955;28;20080;-63
2024/01/08 07:53:36;;;;;;;12.52;8.65;;;;;;;-1.94;94.17;103053.94;5015714;28;20033;-63
2024/01/08 07:56:02;;;;;;;10.13;8.10;;;;;;;-1.97;94.18;103053.03;5020303;28;20030;-63
2024/01/08 07:58:27;;;;;;;11.82;7.40;;;;;;;-2.02;94.04;103055.56;5016642;28;20083;-63
2024/01/08 08:00:53;;;;;;;10.43;7.85;;;;;;;-2.05;94.15;103047.72;5019765;28;20084;-63
2024/01/08 08:03:18;;;;;;;11.07;7.57;;;;;;;-2.07;94.14;103052.03;5013549;28;20038;-63
2024/01/08 08:05:43;;;;;;;14.85;7.50;;;;;;;-2.09;93.94;103045.94;5020266;28;20108;-63
2024/01/08 08:08:09;;;;;;;12.75;9.13;;;;;;;-2.13;94.06;103050.25;5013231;28;20030;-63
2024/01/08 08:10:34;;;;;;;9.50;7.63;;;;;;;-2.13;94.36;103062.38;5014482;28;20040;-63
2024/01/08 08:13:01;;;;;;;12.30;7.97;;;;;;;-2.16;93.90;103065.84;5017179;28;20026;-63
2024/01/08 08:15:26;;;;;;;11.35;7.75;;;;;;;-2.17;94.42;103058.88;5018447;28;20021;-63
2024/01/08 08:17:51;;;;;;;11.07;7.93;;;;;;;-2.16;94.01;103068.44;5016496;28;20022;-63
2024/01/08 08:20:17;;;;;;;9.52;7.95;;;;;;;-2.16;94.38;103058.03;5018056;28;20025;-63
2024/01/08 08:22:42;;;;;;;9.70;7.80;;;;;;;-2.15;94.28;103069.31;5017266;28;20553;-63
2024/01/08 08:25:07;;;;;;;12.02;8.02;;;;;;;-2.16;94.02;103070.19;5017476;28;20030;-63
2024/01/08 08:27:34;;;;;;;11.20;7.55;;;;;;;-2.17;93.64;103071.88;5014478;28;20030;-63
2024/01/08 08:30:00;;;;;;;10.25;7.82;;;;;;;-2.17;93.28;103069.28;5012514;28;20022;-63
2024/01/08 08:32:25;;;;;;;10.75;8.23;;;;;;;-2.17;93.72;103063.22;5012581;28;20388;-63
2024/01/08 08:34:50;;;;;;;9.77;7.60;;;;;;;-2.18;93.48;103056.25;5017429;28;20102;-63
2024/01/08 08:37:16;;;;;;;10.02;7.72;;;;;;;-2.19;92.84;103063.19;5017405;28;20018;-63
2024/01/08 08:39:41;;;;;;;11.50;7.80;;;;;;;-2.20;93.36;103057.97;5022243;28;20032;-63
2024/01/08 08:42:07;;;;;;;10.07;7.40;;;;;;;-2.17;93.81;103073.63;5018455;28;20113;-63
2024/01/08 08:44:33;;;;;;;10.40;7.60;;;;;;;-2.16;93.26;103067.56;5014983;28;20386;-63
2024/01/08 08:47:00;;;;;;;9.38;6.97;;;;;;;-2.16;93.15;103075.38;5001031;28;20076;-63
2024/01/08 08:49:26;;;;;;;12.23;7.63;;;;;;;-2.16;93.00;103073.66;5019283;28;20054;-63
2024/01/08 08:51:51;;;;;;;9.88;6.45;;;;;;;-2.16;92.50;103073.66;5020450;28;20564;-63
2024/01/08 08:54:17;;;;;;;9.48;7.25;;;;;;;-2.16;92.63;103072.78;5015806;28;20030;-63
2024/01/08 08:56:42;;;;;;;9.10;7.15;;;;;;;-2.17;93.48;103071.88;5016853;28;20018;-63
2024/01/08 08:59:07;;;;;;;9.00;7.10;;;;;;;-2.16;93.05;103076.25;5018261;28;20060;-63
2024/01/08 09:01:33;;;;;;;8.95;7.15;;;;;;;-2.17;92.87;103079.69;5013164;28;20032;-63
2024/01/08 09:03:58;;;;;;;7.95;6.32;;;;;;;-2.18;92.54;103080.56;5021462;28;20036;-63
2024/01/08 09:06:24;;;;;;;9.85;6.70;;;;;;;-2.17;92.37;103079.69;5017676;28;20029;-63
2024/01/08 09:08:50;;;;;;;9.88;6.72;;;;;;;-2.18;92.34;103084.88;5009368;28;20037;-63
2024/01/08 09:11:16;;;;;;;8.27;6.32;;;;;;;-2.18;92.55;103080.56;5015629;28;20038;-63
2024/01/08 09:13:42;;;;;;;7.85;6.68;;;;;;;-2.17;93.40;103079.69;5019801;28;20084;-63
2024/01/08 09:16:13;;;;;;;8.63;7.07;;;;;;;-2.20;93.79;103077.06;5018205;28;20037;-63
2024/01/08 09:18:40;;;;;;;7.88;6.53;;;;;;;-2.17;93.43;103091.84;5013509;28;20030;-63
2024/01/08 09:21:12;;;;;;;10.07;6.75;;;;;;;-2.18;93.59;103090.97;5022397;28;20518;-63
2024/01/08 09:23:38;;;;;;;10.23;6.78;;;;;;;-2.16;93.33;103096.22;5010363;28;20026;-63
2024/01/08 09:26:04;;;;;;;9.75;6.85;;;;;;;-2.16;93.45;103088.41;5015328;28;20562;-63
2024/01/08 09:28:30;;;;;;;8.75;6.82;;;;;;;-2.15;94.16;103087.53;5008525;28;20105;-63
2024/01/08 09:30:55;;;;;;;9.20;6.60;;;;;;;-2.13;94.46;103089.31;5017285;28;20584;-63
2024/01/08 09:33:20;;;;;;;7.57;6.30;;;;;;;-2.12;94.03;103091.03;5018053;28;20112;-63
2024/01/08 09:35:47;;;;;;;8.60;6.43;;;;;;;-2.13;93.42;103097.13;5018123;28;20026;-63
2024/01/08 09:38:12;;;;;;;9.02;6.88;;;;;;;-2.15;94.21;103098.84;5011698;28;20030;-63
2024/01/08 09:40:38;;;;;;;8.55;6.57;;;;;;;-2.11;93.99;103105.81;5017922;28;20040;-63
2024/01/08 09:43:06;;;;;;;8.00;6.55;;;;;;;-2.10;94.32;103102.38;5018946;28;20105;-62
2024/01/08 09:45:32;;;;;;;11.07;7.80;;;;;;;-2.09;94.77;103109.31;5013219;28;20095;-63
2024/01/08 09:47:58;;;;;;;8.82;7.00;;;;;;;-2.08;95.18;103108.47;5020073;28;20038;-63
2024/01/08 09:50:24;;;;;;;8.80;6.38;;;;;;;-2.10;96.02;103109.28;5020794;28;20458;-63
2024/01/08 09:52:50;;;;;;;7.68;6.55;;;;;;;-2.12;96.98;103111.00;5014164;28;20117;-63
2024/01/08 09:55:15;;;;;;;11.23;6.57;;;;;;;-2.14;97.25;103104.91;5018301;28;20026;-63
2024/01/08 09:57:41;;;;;;;8.55;7.13;;;;;;;-2.16;98.02;103111.84;5018246;28;20431;-63
2024/01/08 10:00:07;;;;;;;9.73;7.30;;;;;;;-2.18;99.06;103111.81;5016564;28;20025;-63
2024/01/08 10:02:32;;;;;;;10.98;7.57;;;;;;;-2.16;99.58;103114.44;5019300;28;20550;-63
2024/01/08 10:04:58;;;;;;;9.85;7.63;;;;;;;-2.14;99.95;103107.50;5016243;28;20048;-63
2024/01/08 10:07:24;;;;;;;11.65;7.50;;;;;;;-2.12;100.00;103113.59;5016676;28;20057;-63
2024/01/08 10:09:50;;;;;;;9.10;7.50;;;;;;;-2.10;99.76;103109.28;5017338;28;20030;-63
2024/01/08 10:12:16;;;;;;;11.30;7.32;;;;;;;-2.10;98.36;103112.78;5018224;28;20029;-63
2024/01/08 10:14:41;;;;;;;9.10;7.70;;;;;;;-2.12;98.42;103114.47;5020779;28;20037;-63
2024/01/08 10:17:06;;;;;;;11.38;7.43;;;;;;;-2.12;97.82;103111.88;5007010;28;20112;-63
2024/01/08 10:19:32;;;;;;;8.95;7.10;;;;;;;-2.10;98.05;103099.75;5019414;28;20372;-63
2024/01/08 10:22:11;;;;;;;9.43;7.63;;;;;;;-2.08;97.75;103103.25;5019798;28;20471;-63
2024/01/08 10:24:38;;;;;;;9.82;8.32;;;;;;;-2.02;97.36;103101.59;5022057;28;20391;-63
2024/01/08 10:27:04;;;;;;;10.45;7.28;;;;;;;-1.99;96.88;103106.84;5012078;28;20471;-63
2024/01/08 10:29:30;;;;;;;8.85;6.78;;;;;;;-1.98;96.45;103103.34;5016732;28;20077;-63
2024/01/08 10:31:55;;;;;;;9.35;7.13;;;;;;;-1.95;95.89;103109.50;5020577;28;20021;-63
2024/01/08 10:34:21;;;;;;;9.73;6.70;;;;;;;-1.88;94.48;103090.47;5013246;28;20507;-63
2024/01/08 10:36:48;;;;;;;7.72;6.80;;;;;;;-1.87;94.20;103089.59;5020829;28;20390;-63
2024/01/08 10:39:15;;;;;;;8.82;6.50;;;;;;;-1.83;94.12;103098.34;5019963;28;20025;-63
2024/01/08 10:41:40;;;;;;;9.07;6.97;;;;;;;-1.79;94.43;103089.69;5014309;28;20538;-63
2024/01/08 10:44:05;;;;;;;7.70;6.30;;;;;;;-1.75;94.39;103088.88;5019632;28;20137;-63
2024/01/08 10:46:36;;;;;;;9.07;6.57;;;;;;;-1.70;93.46;103083.69;5018298;28;20037;-63
2024/01/08 10:49:04;;;;;;;11.48;7.28;;;;;;;-1.69;93.58;103081.13;5021549;28;20163;-64
2024/01/08 10:51:31;;;;;;;7.70;6.60;;;;;;;-1.65;91.85;103075.94;5019318;28;20100;-64
2024/01/08 10:53:57;;;;;;;7.70;6.63;;;;;;;-1.71;91.92;103076.75;5020780;28;20741;-64
2024/01/08 10:56:31;;;;;;;9.98;7.43;;;;;;;-1.70;92.19;103076.78;5019633;28;20044;-63
2024/01/08 10:59:09;;;;;;;8.18;7.13;;;;;;;-1.70;92.26;103079.38;5008606;28;20036;-63
2024/01/08 11:01:36;;;;;;;7.78;6.55;;;;;;;-1.66;91.27;103077.69;5014214;28;20049;-63
2024/01/08 11:04:03;;;;;;;8.20;6.68;;;;;;;-1.61;91.28;103082.94;5016691;28;20030;-63
2024/01/08 11:06:30;;;;;;;9.50;6.15;;;;;;;-1.61;89.02;103076.00;5019161;28;20034;-63
2024/01/08 11:08:59;;;;;;;7.28;6.00;;;;;;;-1.58;88.86;103075.13;5019714;28;20041;-63
2024/01/08 11:11:25;;;;;;;8.82;6.60;;;;;;;-1.59;87.75;103079.47;5015782;28;20041;-64
2024/01/08 11:13:50;;;;;;;7.07;5.93;;;;;;;-1.57;87.69;103075.16;5015354;28;20029;-63